createdAt,value
2019-05-25T00:01:56.018Z,100149.55
2019-05-25T00:04:30.276Z,100156.73
2019-05-25T00:07:02.660Z,100152.94
2019-05-25T00:09:35.053Z,100152.94
2019-05-25T00:12:07.407Z,100153.34
2019-05-25T00:14:39.810Z,100161.06
2019-05-25T00:17:12.249Z,100165.22
2019-05-25T00:19:44.723Z,100165.97
2019-05-25T00:22:17.146Z,100171.70
2019-05-25T00:24:50.549Z,100171.01
2019-05-25T00:27:23.941Z,100171.27
2019-05-25T00:29:56.345Z,100166.86
2019-05-25T00:32:28.588Z,100166.64
2019-05-25T00:35:02.906Z,100162.73
2019-05-25T00:37:34.796Z,100155.50
2019-05-25T00:40:09.980Z,100151.86
2019-05-25T00:42:42.367Z,100157.47
2019-05-25T00:45:14.713Z,100149.17
2019-05-25T00:47:47.051Z,100145.75
2019-05-25T00:50:20.320Z,100147.59
2019-05-25T00:52:52.627Z,100147.11
2019-05-25T00:55:28.769Z,100144.16
2019-05-25T00:58:04.776Z,100136.84
2019-05-25T01:00:38.020Z,100135.10
2019-05-25T01:03:10.310Z,100135.81
2019-05-25T01:05:42.626Z,100132.66
2019-05-25T01:08:16.006Z,100128.39
2019-05-25T01:10:48.361Z,100132.05
2019-05-25T01:13:23.199Z,100124.98
2019-05-25T01:15:57.461Z,100126.69
2019-05-25T01:18:30.759Z,100127.52
2019-05-25T01:21:03.141Z,100140.00
2019-05-25T01:23:35.421Z,100137.27
2019-05-25T01:26:08.809Z,100134.23
2019-05-25T01:28:42.125Z,100135.81
2019-05-25T01:31:14.406Z,100133.37
2019-05-25T01:33:46.761Z,100128.71
2019-05-25T01:36:19.275Z,100122.62
2019-05-25T01:38:52.535Z,100128.71
2019-05-25T01:41:28.986Z,100124.56
2019-05-25T01:44:01.258Z,100126.14
2019-05-25T01:46:33.600Z,100132.11
2019-05-25T01:49:05.876Z,100128.72
2019-05-25T01:51:38.141Z,100134.95
2019-05-25T01:54:10.344Z,100135.80
2019-05-25T01:56:42.698Z,100136.29
2019-05-25T01:59:14.883Z,100136.67
2019-05-25T02:01:47.157Z,100139.77
2019-05-25T02:04:19.515Z,100133.56
2019-05-25T02:06:51.797Z,100130.11
2019-05-25T02:09:24.195Z,100135.74
2019-05-25T02:11:56.497Z,100138.73
2019-05-25T02:14:28.989Z,100135.52
2019-05-25T02:17:01.349Z,100141.67
2019-05-25T02:19:33.537Z,100153.77
2019-05-25T02:22:07.071Z,100152.42
2019-05-25T02:24:39.334Z,100148.00
2019-05-25T02:27:15.519Z,100144.20
2019-05-25T02:29:47.929Z,100138.86
2019-05-25T02:32:20.320Z,100137.55
2019-05-25T02:34:52.597Z,100140.83
2019-05-25T02:37:24.930Z,100143.73
2019-05-25T02:39:57.241Z,100147.41
2019-05-25T02:42:29.416Z,100158.15
2019-05-25T02:45:01.664Z,100149.01
2019-05-25T02:47:34.923Z,100147.83
2019-05-25T02:50:08.553Z,100148.55
2019-05-25T02:52:40.851Z,100155.27
2019-05-25T02:55:14.344Z,100158.17
2019-05-25T02:57:46.684Z,100152.98
2019-05-25T03:00:23.905Z,100157.73
2019-05-25T03:02:56.165Z,100162.98
2019-05-25T03:05:29.450Z,100158.72
2019-05-25T03:08:03.412Z,100153.96
2019-05-25T03:10:36.714Z,100154.94
2019-05-25T03:13:08.984Z,100160.95
2019-05-25T03:15:41.344Z,100155.50
2019-05-25T03:18:15.277Z,100158.46
2019-05-25T03:20:51.968Z,100163.70
2019-05-25T03:23:24.237Z,100165.14
2019-05-25T03:25:56.549Z,100164.20
2019-05-25T03:28:29.875Z,100161.64
2019-05-25T03:31:02.206Z,100161.28
2019-05-25T03:33:34.606Z,100165.67
2019-05-25T03:36:06.985Z,100166.05
2019-05-25T03:38:39.245Z,100168.48
2019-05-25T03:41:12.511Z,100163.86
2019-05-25T03:43:44.833Z,100168.59
2019-05-25T03:46:17.136Z,100171.78
2019-05-25T03:48:51.408Z,100168.23
2019-05-25T03:51:23.645Z,100165.20
2019-05-25T03:53:55.939Z,100169.11
2019-05-25T03:56:28.259Z,100164.20
2019-05-25T03:59:00.715Z,100165.69
2019-05-25T04:01:33.135Z,100158.18
2019-05-25T04:04:05.576Z,100152.19
2019-05-25T04:06:37.934Z,100152.41
2019-05-25T04:09:10.257Z,100151.33
2019-05-25T04:11:42.456Z,100145.60
2019-05-25T04:14:14.780Z,100146.05
2019-05-25T04:16:49.101Z,100152.58
2019-05-25T04:19:21.443Z,100151.60
2019-05-25T04:21:54.164Z,100145.30
2019-05-25T04:24:26.430Z,100149.02
2019-05-25T04:26:58.597Z,100143.34
2019-05-25T04:29:30.840Z,100154.34
2019-05-25T04:32:03.084Z,100156.56
2019-05-25T04:34:35.405Z,100157.15
2019-05-25T04:37:07.765Z,100163.69
2019-05-25T04:39:40.102Z,100165.89
2019-05-25T04:42:13.508Z,100162.90
2019-05-25T04:44:46.048Z,100167.27
2019-05-25T04:47:26.969Z,100164.26
2019-05-25T04:49:53.331Z,100165.45
2019-05-25T04:52:25.622Z,100167.89
2019-05-25T04:55:01.607Z,100175.27
2019-05-25T04:57:33.887Z,100178.26
2019-05-25T05:00:09.425Z,100172.66
2019-05-25T05:02:42.079Z,100172.48
2019-05-25T05:05:14.453Z,100172.98
2019-05-25T05:07:46.837Z,100171.88
2019-05-25T05:10:19.113Z,100181.69
2019-05-25T05:12:51.483Z,100176.37
2019-05-25T05:15:24.725Z,100178.36
2019-05-25T05:17:57.126Z,100179.56
2019-05-25T05:20:31.315Z,100181.26
2019-05-25T05:23:03.628Z,100184.95
2019-05-25T05:25:35.913Z,100182.05
2019-05-25T05:28:09.433Z,100185.45
2019-05-25T05:30:45.218Z,100183.99
2019-05-25T05:33:18.833Z,100184.30
2019-05-25T05:35:53.099Z,100179.95
2019-05-25T05:38:27.357Z,100180.02
2019-05-25T05:41:00.436Z,100181.11
2019-05-25T05:43:33.340Z,100180.66
2019-05-25T05:46:08.019Z,100178.31
2019-05-25T05:48:40.812Z,100180.52
2019-05-25T05:51:16.280Z,100184.34
2019-05-25T05:53:51.247Z,100190.08
2019-05-25T05:56:24.583Z,100185.66
2019-05-25T05:58:56.870Z,100189.98
2019-05-25T06:01:30.182Z,100192.08
2019-05-25T06:04:06.181Z,100190.13
2019-05-25T06:06:40.428Z,100197.41
2019-05-25T06:09:12.668Z,100196.52
2019-05-25T06:11:45.007Z,100191.48
2019-05-25T06:14:17.212Z,100189.19
2019-05-25T06:16:52.717Z,100193.64
2019-05-25T06:19:25.052Z,100190.16
2019-05-25T06:21:57.334Z,100187.11
2019-05-25T06:24:35.598Z,100178.78
2019-05-25T06:27:07.904Z,100175.39
2019-05-25T06:29:40.225Z,100167.92
2019-05-25T06:32:13.918Z,100167.88
2019-05-25T06:34:47.686Z,100160.42
2019-05-25T06:37:20.077Z,100156.94
2019-05-25T06:39:52.361Z,100151.30
2019-05-25T06:42:24.489Z,100142.67
2019-05-25T06:44:56.882Z,100141.19
2019-05-25T06:47:29.126Z,100142.78
2019-05-25T06:50:07.739Z,100128.89
2019-05-25T06:52:39.926Z,100143.16
2019-05-25T06:55:13.531Z,100151.73
2019-05-25T06:57:45.869Z,100149.31
2019-05-25T07:00:18.745Z,100147.59
2019-05-25T07:02:51.288Z,100147.61
2019-05-25T07:05:23.532Z,100147.47
2019-05-25T07:07:56.821Z,100140.17
2019-05-25T07:10:29.197Z,100137.70
2019-05-25T07:13:03.277Z,100138.47
2019-05-25T07:15:34.958Z,100125.71
2019-05-25T07:18:07.208Z,100118.71
2019-05-25T07:20:40.656Z,100117.08
2019-05-25T07:23:13.114Z,100118.69
2019-05-25T07:25:49.776Z,100119.06
2019-05-25T07:28:23.060Z,100118.30
2019-05-25T07:30:56.530Z,100125.79
2019-05-25T07:33:28.905Z,100124.19
2019-05-25T07:36:01.322Z,100123.50
2019-05-25T07:38:34.641Z,100121.20
2019-05-25T07:41:07.018Z,100108.25
2019-05-25T07:43:39.753Z,100114.95
2019-05-25T07:46:16.877Z,100117.17
2019-05-25T07:48:50.273Z,100116.45
2019-05-25T07:51:22.042Z,100112.36
2019-05-25T07:53:54.409Z,100114.22
2019-05-25T07:56:26.973Z,100118.98
2019-05-25T07:58:59.260Z,100121.61
2019-05-25T08:01:31.499Z,100117.20
2019-05-25T08:04:06.743Z,100127.55
2019-05-25T08:06:39.136Z,100122.27
2019-05-25T08:09:12.492Z,100125.89
2019-05-25T08:11:44.790Z,100128.24
2019-05-25T08:14:18.050Z,100118.34
2019-05-25T08:16:51.460Z,100122.74
2019-05-25T08:19:23.739Z,100129.77
2019-05-25T08:21:56.132Z,100125.67
2019-05-25T08:24:28.402Z,100116.36
2019-05-25T08:27:02.825Z,100117.83
2019-05-25T08:29:34.337Z,100107.86
2019-05-25T08:32:06.376Z,100093.40
2019-05-25T08:34:38.643Z,100097.66
2019-05-25T08:37:11.147Z,100096.61
2019-05-25T08:39:44.431Z,100097.42
2019-05-25T08:42:16.695Z,100087.64
2019-05-25T08:44:50.961Z,100093.08
2019-05-25T08:47:23.286Z,100086.91
2019-05-25T08:49:55.533Z,100100.80
2019-05-25T08:52:29.006Z,100108.48
2019-05-25T08:55:02.506Z,100100.33
2019-05-25T08:57:34.945Z,100091.98
2019-05-25T09:00:08.320Z,100094.47
2019-05-25T09:02:40.690Z,100085.42
2019-05-25T09:05:13.399Z,100077.26
2019-05-25T09:07:45.667Z,100069.95
2019-05-25T09:10:21.250Z,100068.27
2019-05-25T09:12:53.898Z,100065.33
2019-05-25T09:15:26.319Z,100065.20
2019-05-25T09:17:58.608Z,100069.75
2019-05-25T09:20:35.910Z,100064.59
2019-05-25T09:23:08.197Z,100057.16
2019-05-25T09:25:41.112Z,100060.87
2019-05-25T09:28:13.435Z,100058.80
2019-05-25T09:30:45.785Z,100063.80
2019-05-25T09:33:18.099Z,100056.09
2019-05-25T09:35:51.386Z,100051.02
2019-05-25T09:38:24.820Z,100056.11
2019-05-25T09:40:57.214Z,100050.69
2019-05-25T09:43:29.525Z,100044.80
2019-05-25T09:46:03.839Z,100043.45
2019-05-25T09:48:38.269Z,100042.84
2019-05-25T09:51:15.161Z,100030.28
2019-05-25T09:53:44.111Z,100032.74
2019-05-25T09:56:16.403Z,100030.52
2019-05-25T09:58:48.745Z,100032.61
2019-05-25T10:01:25.521Z,100037.01
2019-05-25T10:03:59.180Z,100034.83
2019-05-25T10:06:35.631Z,100033.64
2019-05-25T10:09:11.468Z,100026.75
2019-05-25T10:11:43.797Z,100015.41
2019-05-25T10:14:19.156Z,100016.08
2019-05-25T10:16:51.802Z,100020.48
2019-05-25T10:19:24.111Z,100021.09
2019-05-25T10:21:59.429Z,100020.34
2019-05-25T10:24:31.925Z,100022.59
2019-05-25T10:27:05.311Z,100042.19
2019-05-25T10:29:40.539Z,100073.03
2019-05-25T10:32:14.032Z,100101.42
2019-05-25T10:34:47.294Z,100109.96
2019-05-25T10:37:19.681Z,100110.98
2019-05-25T10:39:55.030Z,100117.05
2019-05-25T10:42:30.331Z,100121.20
2019-05-25T10:45:05.268Z,100123.69
2019-05-25T10:47:37.636Z,100129.76
2019-05-25T10:50:11.430Z,100123.05
2019-05-25T10:52:43.802Z,100124.68
2019-05-25T10:55:16.627Z,100121.96
2019-05-25T10:57:48.942Z,100107.09
2019-05-25T11:00:21.750Z,100096.95
2019-05-25T11:02:55.164Z,100088.70
2019-05-25T11:05:27.556Z,100083.42
2019-05-25T11:08:01.003Z,100068.16
2019-05-25T11:10:33.263Z,100073.67
2019-05-25T11:13:05.690Z,100084.50
2019-05-25T11:15:41.876Z,100080.50
2019-05-25T11:18:15.066Z,100087.37
2019-05-25T11:20:47.397Z,100083.91
2019-05-25T11:23:22.200Z,100085.84
2019-05-25T11:25:55.371Z,100074.75
2019-05-25T11:28:27.627Z,100084.23
2019-05-25T11:30:59.951Z,100078.91
2019-05-25T11:33:32.320Z,100083.28
2019-05-25T11:36:08.560Z,100081.86
2019-05-25T11:38:40.866Z,100079.86
2019-05-25T11:41:14.241Z,100095.54
2019-05-25T11:43:48.606Z,100097.85
2019-05-25T11:46:20.883Z,100111.23
2019-05-25T11:48:56.831Z,100112.09
2019-05-25T11:51:29.075Z,100118.34
2019-05-25T11:54:05.510Z,100113.36
2019-05-25T11:56:38.744Z,100100.17
2019-05-25T11:59:14.345Z,100098.80
2019-05-25T12:01:48.700Z,100100.17
2019-05-25T12:04:22.070Z,100109.81
2019-05-25T12:07:43.717Z,100111.39
2019-05-25T12:09:58.051Z,100103.41
2019-05-25T12:12:33.239Z,100109.84
2019-05-25T12:15:08.202Z,100099.78
2019-05-25T12:17:49.346Z,100097.53
2019-05-25T12:20:26.349Z,100090.55
2019-05-25T12:22:59.938Z,100082.97
2019-05-25T12:25:32.332Z,100081.37
2019-05-25T12:28:06.391Z,100087.35
2019-05-25T12:30:41.304Z,100095.28
2019-05-25T14:22:12.112Z,99968.39
2019-05-25T14:25:38.352Z,99967.72
2019-05-25T14:34:08.542Z,99961.09
2019-05-25T14:36:48.237Z,99955.56
2019-05-25T14:39:20.808Z,99957.69
2019-05-25T14:41:55.512Z,99960.47
2019-05-25T14:44:27.223Z,99958.35
2019-05-25T14:46:59.588Z,99964.11
2019-05-25T14:49:34.291Z,99971.39
2019-05-25T14:52:10.927Z,99969.93
2019-05-25T14:54:43.211Z,99967.48
2019-05-25T14:57:35.983Z,99969.30
2019-05-25T15:00:23.631Z,99973.69
2019-05-25T15:03:14.335Z,99967.67
2019-05-25T15:06:07.022Z,99975.72
2019-05-25T15:08:42.933Z,99979.34
2019-05-25T15:11:17.331Z,99973.31
2019-05-25T15:13:49.326Z,99974.20
2019-05-25T15:16:21.533Z,99975.52
2019-05-25T15:18:53.729Z,99975.31
2019-05-25T15:21:27.086Z,99979.20
2019-05-25T15:23:59.301Z,99980.75
2019-05-25T15:26:31.598Z,99990.66
2019-05-25T15:29:04.916Z,99989.68
2019-05-25T15:31:37.059Z,99984.53
2019-05-25T15:34:09.406Z,99990.39
2019-05-25T15:36:42.566Z,99990.55
2019-05-25T15:39:15.771Z,99991.19
2019-05-25T15:41:49.165Z,99997.97
2019-05-25T15:44:23.296Z,100005.45
2019-05-25T15:46:56.511Z,100002.89
2019-05-25T15:49:33.218Z,99996.51
2019-05-25T15:52:02.555Z,99999.84
2019-05-25T15:54:34.727Z,99998.37
2019-05-25T15:57:06.955Z,99998.98
2019-05-25T15:59:40.324Z,99999.20
2019-05-25T16:02:13.532Z,99995.44
2019-05-25T16:04:45.784Z,99995.95
2019-05-25T16:07:18.150Z,99998.39
2019-05-25T16:09:50.391Z,100001.08
2019-05-25T16:12:22.556Z,100001.09
2019-05-25T16:14:54.764Z,100000.64
2019-05-25T16:17:26.896Z,99993.23
2019-05-25T16:20:00.754Z,99992.75
2019-05-25T16:22:33.276Z,99998.34
2019-05-25T16:25:09.645Z,100004.84
2019-05-25T16:27:41.765Z,99997.27
2019-05-25T16:30:14.936Z,99998.77
2019-05-25T16:33:11.006Z,99993.45
2019-05-25T16:35:21.185Z,99993.87
2019-05-25T16:37:53.579Z,99994.63
2019-05-25T16:40:26.111Z,99994.02
2019-05-25T16:42:58.295Z,99992.86
2019-05-25T16:45:34.116Z,99996.31
2019-05-25T16:48:06.280Z,99991.39
2019-05-25T16:50:38.553Z,99989.14
2019-05-25T16:53:10.800Z,99985.02
2019-05-25T16:55:44.904Z,99989.70
2019-05-25T16:58:19.783Z,99992.66
2019-05-25T17:00:56.135Z,99997.31
2019-05-25T17:03:29.465Z,99998.59
2019-05-25T17:06:02.948Z,99999.70
2019-05-25T17:08:35.521Z,99988.14
2019-05-25T17:11:07.698Z,99997.73
2019-05-25T17:13:40.841Z,99992.34
2019-05-25T17:16:13.141Z,99987.31
2019-05-25T17:18:45.282Z,99991.88
2019-05-25T17:21:18.448Z,99986.30
2019-05-25T17:23:51.516Z,99990.36
2019-05-25T17:26:23.587Z,99989.70
2019-05-25T17:28:55.816Z,99992.09
2019-05-25T17:31:27.915Z,99986.81
2019-05-25T17:34:01.113Z,99987.08
2019-05-25T17:36:34.224Z,99987.94
2019-05-25T17:39:08.525Z,99979.54
2019-05-25T17:41:40.713Z,99980.50
2019-05-25T17:44:12.897Z,99983.19
2019-05-25T17:46:46.265Z,99989.06
2019-05-25T17:49:19.448Z,99985.63
2019-05-25T17:51:51.670Z,99996.44
2019-05-25T17:54:24.976Z,100002.08
2019-05-25T17:56:57.287Z,100007.11
2019-05-25T17:59:29.587Z,100010.89
2019-05-25T18:02:02.876Z,100017.05
2019-05-25T18:04:35.170Z,100013.63
2019-05-25T18:07:09.759Z,100013.63
2019-05-25T18:09:45.843Z,100014.02
2019-05-25T18:12:19.369Z,100018.41
2019-05-25T18:14:51.682Z,100022.69
2019-05-25T18:17:24.122Z,100022.65
2019-05-25T18:19:56.455Z,100017.55
2019-05-25T18:22:29.133Z,100026.86
2019-05-25T18:25:01.549Z,100025.27
2019-05-25T18:27:33.980Z,100030.15
2019-05-25T18:30:09.315Z,100025.87
2019-05-25T18:32:44.763Z,100032.73
2019-05-25T18:35:17.099Z,100033.96
2019-05-25T18:37:49.444Z,100032.72
2019-05-25T18:40:22.022Z,100033.84
2019-05-25T18:42:54.281Z,100032.38
2019-05-25T18:45:26.722Z,100033.85
2019-05-25T18:47:59.089Z,100035.55
2019-05-25T18:50:31.579Z,100035.81
2019-05-25T18:53:04.399Z,100030.41
2019-05-25T18:55:38.868Z,100030.30
2019-05-25T18:58:12.156Z,100038.84
2019-05-25T19:00:44.449Z,100027.67
2019-05-25T19:03:16.876Z,100031.60
2019-05-25T19:05:49.171Z,100025.02
2019-05-25T19:08:21.605Z,100026.28
2019-05-25T19:10:56.025Z,100029.56
2019-05-25T19:13:28.353Z,100027.13
2019-05-25T19:16:00.659Z,100027.72
2019-05-25T19:18:33.042Z,100025.03
2019-05-25T19:21:05.366Z,100024.66
2019-05-25T19:23:37.895Z,100029.69
2019-05-25T19:26:10.217Z,100033.22
2019-05-25T19:28:43.453Z,100031.04
2019-05-25T19:31:15.820Z,100029.06
2019-05-25T19:33:48.186Z,100021.63
2019-05-25T19:36:22.454Z,100016.62
2019-05-25T19:38:54.868Z,100015.27
2019-05-25T19:41:27.412Z,100009.27
2019-05-25T19:44:00.747Z,100016.34
2019-05-25T19:46:33.033Z,100017.06
2019-05-25T19:49:05.293Z,100014.97
2019-05-25T19:51:37.642Z,100019.14
2019-05-25T19:54:10.015Z,100016.20
2019-05-25T19:56:42.346Z,100013.02
2019-05-25T19:59:14.780Z,100013.16
2019-05-25T20:01:47.096Z,100009.13
2019-05-25T20:04:20.352Z,100011.44
2019-05-25T20:06:52.792Z,100014.76
2019-05-25T20:09:25.075Z,100017.30
2019-05-25T20:11:57.342Z,100008.89
2019-05-25T20:14:29.717Z,100011.82
2019-05-25T20:17:02.115Z,100012.17
2019-05-25T20:19:34.515Z,100014.87
2019-05-25T20:22:09.223Z,100012.06
2019-05-25T20:24:40.991Z,100014.16
2019-05-25T20:27:13.138Z,100015.14
2019-05-25T20:29:45.498Z,100008.64
2019-05-25T20:32:17.794Z,100009.48
2019-05-25T20:34:50.145Z,100009.41
2019-05-25T20:37:23.456Z,100006.48
2019-05-25T20:39:56.798Z,100010.75
2019-05-25T20:42:29.171Z,100005.48
2019-05-25T20:45:01.423Z,100009.77
2019-05-25T20:47:39.024Z,100014.28
2019-05-25T20:50:11.637Z,100016.74
2019-05-25T20:52:44.943Z,100018.33
2019-05-25T20:55:17.241Z,100020.53
2019-05-25T20:57:49.466Z,100011.73
2019-05-25T21:00:24.123Z,100017.70
2019-05-25T21:03:06.010Z,100015.52
2019-05-25T21:05:46.970Z,100018.59
2019-05-25T21:08:05.796Z,100020.53
2019-05-25T21:10:46.361Z,100014.41
2019-05-25T21:13:20.259Z,100011.97
2019-05-25T21:15:52.740Z,100017.83
2019-05-25T21:18:25.145Z,100017.83
2019-05-25T21:20:57.428Z,100017.08
2019-05-25T21:23:29.626Z,100028.07
2019-05-25T21:26:03.866Z,100018.41
2019-05-25T21:28:37.115Z,100022.09
2019-05-25T21:31:09.315Z,100018.55
2019-05-25T21:33:41.557Z,100017.94
2019-05-25T21:36:14.005Z,100014.64
2019-05-25T21:38:47.231Z,100016.22
2019-05-25T21:41:19.656Z,100017.92
2019-05-25T21:43:52.927Z,100014.64
2019-05-25T21:46:26.179Z,100007.56
2019-05-25T21:48:58.617Z,100012.70
2019-05-25T21:51:31.915Z,100007.17
2019-05-25T21:54:04.310Z,100008.05
2019-05-25T21:56:37.745Z,100009.87
2019-05-25T21:59:10.072Z,100012.44
2019-05-25T22:01:43.354Z,100012.08
2019-05-25T22:04:15.624Z,100012.08
2019-05-25T22:06:48.012Z,100010.86
2019-05-25T22:09:21.421Z,100016.59
2019-05-25T22:11:54.820Z,100015.24
2019-05-25T22:14:27.093Z,100014.77
2019-05-25T22:16:59.436Z,100013.55
2019-05-25T22:19:31.704Z,100015.75
2019-05-25T22:22:04.123Z,100018.05
2019-05-25T22:24:36.411Z,100015.48
2019-05-25T22:27:08.834Z,100020.97
2019-05-25T22:29:41.097Z,100016.70
2019-05-25T22:32:13.329Z,100020.50
2019-05-25T22:34:46.605Z,100018.19
2019-05-25T22:37:18.964Z,100015.25
2019-05-25T22:39:52.273Z,100018.53
2019-05-25T22:42:24.584Z,100017.06
2019-05-25T22:44:56.775Z,100015.59
2019-05-25T22:47:30.081Z,100016.07
2019-05-25T22:50:02.422Z,100017.66
2019-05-25T22:52:34.756Z,100016.91
2019-05-25T22:55:07.901Z,100017.24
2019-05-25T22:57:40.143Z,100009.81
2019-05-25T23:00:13.424Z,100013.82
2019-05-25T23:02:45.729Z,100007.96
2019-05-25T23:05:18.131Z,100012.61
2019-05-25T23:07:50.436Z,100006.86
2019-05-25T23:10:23.469Z,100004.14
2019-05-25T23:12:55.768Z,100000.59
2019-05-25T23:15:29.135Z,99999.73
2019-05-25T23:18:01.447Z,100002.52
2019-05-25T23:20:36.509Z,100003.47
2019-05-25T23:23:07.895Z,100006.77
2019-05-25T23:25:40.221Z,100007.00
2019-05-25T23:28:12.565Z,100008.93
2019-05-25T23:30:46.410Z,100010.89
2019-05-25T23:33:18.873Z,100009.26
2019-05-25T23:35:51.164Z,100002.33
2019-05-25T23:38:23.590Z,100004.74
2019-05-25T23:40:58.259Z,99998.75
2019-05-25T23:43:31.935Z,100006.45
2019-05-25T23:46:05.524Z,100000.95
2019-05-25T23:48:37.962Z,99997.16
2019-05-25T23:51:11.344Z,99994.34
2019-05-25T23:53:43.668Z,99992.83
2019-05-25T23:56:18.002Z,99997.70
2019-05-25T23:58:50.431Z,99998.67
